createdAt,value
2023-03-07T00:01:34.913Z,19.67
2023-03-07T00:04:02.038Z,19.57
2023-03-07T00:06:29.483Z,20.00
2023-03-07T00:08:59.407Z,18.00
2023-03-07T00:11:27.429Z,19.60
2023-03-07T00:13:55.547Z,20.53
2023-03-07T00:16:24.187Z,19.07
2023-03-07T00:18:51.342Z,19.27
2023-03-07T00:21:21.076Z,20.13
2023-03-07T00:23:48.584Z,18.70
2023-03-07T00:26:19.279Z,19.83
2023-03-07T00:28:47.106Z,20.47
2023-03-07T00:31:14.558Z,21.53
2023-03-07T00:33:41.472Z,20.23
2023-03-07T00:36:11.993Z,19.97
2023-03-07T00:38:38.997Z,20.47
2023-03-07T00:41:08.090Z,21.43
2023-03-07T00:43:36.531Z,20.23
2023-03-07T00:46:04.416Z,19.07
2023-03-07T00:48:34.281Z,17.97
2023-03-07T00:51:01.796Z,20.57
2023-03-07T00:53:28.569Z,18.80
2023-03-07T00:55:57.504Z,20.73
2023-03-07T00:58:25.171Z,20.53
2023-03-07T01:00:53.831Z,17.10
2023-03-07T01:03:21.177Z,22.40
2023-03-07T01:05:48.482Z,19.80
2023-03-07T01:08:15.700Z,19.97
2023-03-07T01:10:43.592Z,22.27
2023-03-07T01:13:11.188Z,20.73
2023-03-07T01:15:39.113Z,16.93
2023-03-07T01:18:09.123Z,20.87
2023-03-07T01:20:37.452Z,16.07
2023-03-07T01:23:04.810Z,18.93
2023-03-07T01:25:32.403Z,20.83
2023-03-07T01:27:59.220Z,19.23
2023-03-07T01:30:26.036Z,15.53
2023-03-07T01:32:56.298Z,20.47
2023-03-07T01:35:25.181Z,18.60
2023-03-07T01:37:53.213Z,19.37
2023-03-07T01:40:22.299Z,14.87
2023-03-07T01:42:49.277Z,11.00
2023-03-07T01:45:53.770Z,19.20
2023-03-07T01:48:20.670Z,18.60
2023-03-07T01:50:49.936Z,17.47
2023-03-07T01:53:16.818Z,17.80
2023-03-07T01:55:44.013Z,19.53
2023-03-07T01:58:13.680Z,17.53
2023-03-07T02:00:42.192Z,17.17
2023-03-07T02:03:17.022Z,13.40
2023-03-07T02:05:50.576Z,13.20
2023-03-07T02:08:20.113Z,17.47
2023-03-07T02:10:48.223Z,18.57
2023-03-07T02:13:15.318Z,17.63
2023-03-07T02:15:43.197Z,18.33
2023-03-07T02:18:13.882Z,17.40
2023-03-07T02:20:48.700Z,18.17
2023-03-07T02:23:24.941Z,15.07
2023-03-07T02:26:01.390Z,17.37
2023-03-07T02:28:29.722Z,19.10
2023-03-07T02:30:59.018Z,18.33
2023-03-07T02:33:25.940Z,14.27
2023-03-07T02:35:57.078Z,15.70
2023-03-07T02:38:24.719Z,17.73
2023-03-07T02:40:53.710Z,15.20
2023-03-07T02:43:21.652Z,15.47
2023-03-07T02:45:50.078Z,15.90
2023-03-07T02:50:58.160Z,17.10
2023-03-07T02:53:25.119Z,16.63
2023-03-07T02:55:52.302Z,16.47
2023-03-07T02:58:19.127Z,13.73
2023-03-07T03:00:46.370Z,14.97
2023-03-07T03:03:14.726Z,13.93
2023-03-07T03:05:42.079Z,15.57
2023-03-07T03:08:09.105Z,15.07
2023-03-07T03:10:36.182Z,16.90
2023-03-07T03:13:03.319Z,12.13
2023-03-07T03:15:30.589Z,15.97
2023-03-07T03:17:57.365Z,13.47
2023-03-07T03:20:25.940Z,16.80
2023-03-07T03:22:52.963Z,16.30
2023-03-07T03:25:23.140Z,18.17
2023-03-07T03:27:50.849Z,16.73
2023-03-07T03:30:18.304Z,14.87
2023-03-07T03:32:45.108Z,16.30
2023-03-07T03:35:12.361Z,15.90
2023-03-07T03:37:40.748Z,17.80
2023-03-07T03:40:14.893Z,14.70
2023-03-07T03:42:41.926Z,15.40
2023-03-07T03:45:10.616Z,13.73
2023-03-07T03:47:38.171Z,16.53
2023-03-07T03:50:06.149Z,17.73
2023-03-07T03:52:34.897Z,12.53
2023-03-07T03:55:03.619Z,14.93
2023-03-07T03:57:30.467Z,15.97
2023-03-07T03:59:57.803Z,15.37
2023-03-07T04:02:24.815Z,14.43
2023-03-07T04:04:51.842Z,10.03
2023-03-07T04:07:18.611Z,15.00
2023-03-07T04:09:45.609Z,14.03
2023-03-07T04:12:13.742Z,10.63
2023-03-07T04:14:40.879Z,11.63
2023-03-07T04:17:07.635Z,12.23
2023-03-07T04:19:34.661Z,14.67
2023-03-07T04:22:01.518Z,12.53
2023-03-07T04:24:28.536Z,13.47
2023-03-07T04:26:55.347Z,13.80
2023-03-07T04:29:23.851Z,13.17
2023-03-07T04:31:50.644Z,13.47
2023-03-07T04:34:17.953Z,13.77
2023-03-07T04:36:44.766Z,12.80
2023-03-07T04:39:11.885Z,14.87
2023-03-07T04:41:38.751Z,14.33
2023-03-07T04:44:05.636Z,14.27
2023-03-07T04:46:33.975Z,14.93
2023-03-07T04:49:01.212Z,11.87
2023-03-07T04:51:28.017Z,15.33
2023-03-07T04:53:54.960Z,14.37
2023-03-07T04:56:21.724Z,13.90
2023-03-07T04:58:49.080Z,14.20
2023-03-07T05:01:15.923Z,13.80
2023-03-07T05:03:44.565Z,12.47
2023-03-07T05:06:14.254Z,14.20
2023-03-07T05:08:41.643Z,14.03
2023-03-07T05:11:08.432Z,15.37
2023-03-07T05:13:35.420Z,14.00
2023-03-07T05:16:02.907Z,13.77
2023-03-07T05:18:29.966Z,13.30
2023-03-07T05:20:58.404Z,12.43
2023-03-07T05:23:25.786Z,13.73
2023-03-07T05:25:52.640Z,11.87
2023-03-07T05:28:19.909Z,14.43
2023-03-07T05:30:47.179Z,13.83
2023-03-07T05:33:15.057Z,12.07
2023-03-07T05:35:42.097Z,13.07
2023-03-07T05:38:11.058Z,14.30
2023-03-07T05:40:38.121Z,13.10
2023-03-07T05:43:05.203Z,12.93
2023-03-07T05:45:32.508Z,14.00
2023-03-07T05:47:59.540Z,12.37
2023-03-07T05:50:26.577Z,13.73
2023-03-07T05:52:53.426Z,13.17
2023-03-07T05:55:21.906Z,12.83
2023-03-07T05:57:50.261Z,13.30
2023-03-07T06:00:18.232Z,13.90
2023-03-07T06:02:45.060Z,13.20
2023-03-07T06:05:11.924Z,14.07
2023-03-07T06:07:38.761Z,13.10
2023-03-07T06:10:10.508Z,13.17
2023-03-07T06:12:39.035Z,14.30
2023-03-07T06:15:07.366Z,14.37
2023-03-07T06:17:34.865Z,13.70
2023-03-07T06:20:01.728Z,13.03
2023-03-07T06:22:29.358Z,11.30
2023-03-07T06:24:56.212Z,11.93
2023-03-07T06:27:23.372Z,10.63
2023-03-07T06:29:51.523Z,10.20
2023-03-07T06:32:18.480Z,11.03
2023-03-07T06:34:45.573Z,9.43
2023-03-07T06:37:12.650Z,9.17
2023-03-07T06:42:24.088Z,7.67
2023-03-07T06:44:52.694Z,8.70
2023-03-07T06:47:19.585Z,8.37
2023-03-07T06:49:46.369Z,7.27
2023-03-07T06:52:13.191Z,7.07
2023-03-07T06:54:40.328Z,5.87
2023-03-07T06:57:07.088Z,4.07
2023-03-07T06:59:34.182Z,4.47
2023-03-07T07:02:03.656Z,4.00
2023-03-07T07:04:31.194Z,3.63
2023-03-07T07:06:58.011Z,3.40
2023-03-07T07:09:25.230Z,3.23
2023-03-07T07:11:51.989Z,3.83
2023-03-07T07:14:19.170Z,3.40
2023-03-07T07:16:45.952Z,4.40
2023-03-07T07:19:14.108Z,5.33
2023-03-07T07:21:40.889Z,4.93
2023-03-07T07:24:10.368Z,6.13
2023-03-07T07:26:37.543Z,6.57
2023-03-07T07:29:04.856Z,5.03
2023-03-07T07:31:31.730Z,5.60
2023-03-07T07:33:58.669Z,5.57
2023-03-07T07:36:26.911Z,5.63
2023-03-07T07:38:53.720Z,4.43
2023-03-07T07:41:20.520Z,5.63
2023-03-07T07:43:48.742Z,4.63
2023-03-07T07:46:16.018Z,5.23
2023-03-07T07:48:42.898Z,3.57
2023-03-07T07:51:09.982Z,3.70
2023-03-07T07:53:38.530Z,3.60
2023-03-07T07:56:05.786Z,3.23
2023-03-07T07:58:32.734Z,2.93
2023-03-07T08:01:00.146Z,2.53
2023-03-07T08:03:27.419Z,2.07
2023-03-07T08:05:54.200Z,2.33
2023-03-07T08:08:21.337Z,2.20
2023-03-07T08:10:49.810Z,2.53
2023-03-07T08:13:18.224Z,2.47
2023-03-07T08:15:45.136Z,2.23
2023-03-07T08:18:12.340Z,1.70
2023-03-07T08:20:41.135Z,3.00
2023-03-07T08:23:08.510Z,3.20
2023-03-07T08:25:35.371Z,2.93
2023-03-07T08:28:05.700Z,2.97
2023-03-07T08:30:35.269Z,3.47
2023-03-07T08:33:02.596Z,4.10
2023-03-07T08:35:31.671Z,3.80
2023-03-07T08:38:02.078Z,3.50
2023-03-07T08:40:30.339Z,3.20
2023-03-07T08:42:58.816Z,3.63
2023-03-07T08:45:27.113Z,2.77
2023-03-07T08:47:54.673Z,2.77
2023-03-07T08:50:23.879Z,3.33
2023-03-07T08:52:51.317Z,2.50
2023-03-07T08:55:18.150Z,2.00
2023-03-07T08:57:47.536Z,2.10
2023-03-07T09:00:15.648Z,2.20
2023-03-07T09:02:44.195Z,2.97
2023-03-07T09:05:11.065Z,3.37
2023-03-07T09:07:38.322Z,2.20
2023-03-07T09:10:06.177Z,2.17
2023-03-07T09:12:33.617Z,2.90
2023-03-07T09:15:00.704Z,2.27
2023-03-07T09:17:27.894Z,2.83
2023-03-07T09:19:56.622Z,1.93
2023-03-07T09:22:23.964Z,2.23
2023-03-07T09:24:50.808Z,2.70
2023-03-07T09:27:17.956Z,2.23
2023-03-07T09:29:44.880Z,2.53
2023-03-07T09:32:12.077Z,1.80
2023-03-07T09:34:39.072Z,2.20
2023-03-07T09:37:07.643Z,2.60
2023-03-07T09:39:34.442Z,2.40
2023-03-07T09:42:16.418Z,2.30
2023-03-07T09:45:00.176Z,2.77
2023-03-07T09:47:58.846Z,2.23
2023-03-07T09:50:32.467Z,2.20
2023-03-07T09:53:03.268Z,2.27
2023-03-07T09:55:32.034Z,2.50
2023-03-07T09:58:01.149Z,2.40
2023-03-07T10:00:33.273Z,2.27
2023-03-07T10:03:12.383Z,2.50
2023-03-07T10:05:43.316Z,2.20
2023-03-07T10:08:13.791Z,2.27
2023-03-07T10:10:44.598Z,1.67
2023-03-07T10:13:33.611Z,2.70
2023-03-07T10:16:05.056Z,2.10
2023-03-07T10:18:42.582Z,1.40
2023-03-07T10:21:22.342Z,2.63
2023-03-07T10:24:09.067Z,1.70
2023-03-07T10:26:40.970Z,2.20
2023-03-07T10:29:15.149Z,1.33
2023-03-07T10:31:47.073Z,1.40
2023-03-07T10:34:26.443Z,1.80
2023-03-07T10:37:08.491Z,1.63
2023-03-07T10:39:43.559Z,1.60
2023-03-07T10:42:12.890Z,1.80
2023-03-07T10:44:40.481Z,1.60
2023-03-07T10:47:18.998Z,1.57
2023-03-07T10:49:47.264Z,1.80
2023-03-07T10:52:26.821Z,1.93
2023-03-07T10:54:57.730Z,1.90
2023-03-07T10:57:28.078Z,1.80
2023-03-07T10:59:54.978Z,1.70
2023-03-07T11:02:34.064Z,1.90
2023-03-07T11:05:01.776Z,2.03
2023-03-07T11:07:30.581Z,1.90
2023-03-07T11:10:00.463Z,2.07
2023-03-07T11:12:29.632Z,1.87
2023-03-07T11:15:08.744Z,1.97
2023-03-07T11:17:42.041Z,2.10
2023-03-07T11:20:20.216Z,2.20
2023-03-07T11:22:47.447Z,2.30
2023-03-07T11:25:18.958Z,2.30
2023-03-07T11:27:52.034Z,2.10
2023-03-07T11:30:25.155Z,2.00
2023-03-07T11:32:58.868Z,2.03
2023-03-07T11:35:40.250Z,2.30
2023-03-07T11:38:13.900Z,2.47
2023-03-07T11:40:49.467Z,2.50
2023-03-07T11:43:21.854Z,2.33
2023-03-07T11:45:54.499Z,2.27
2023-03-07T11:48:35.974Z,1.97
2023-03-07T11:51:05.021Z,1.97
2023-03-07T11:53:49.044Z,1.70
2023-03-07T11:56:28.145Z,2.03
2023-03-07T11:59:14.622Z,2.10
2023-03-07T12:01:48.146Z,2.20
2023-03-07T12:04:45.902Z,2.37
2023-03-07T12:07:30.999Z,2.57
2023-03-07T12:10:04.481Z,2.30
2023-03-07T12:12:47.735Z,2.30
2023-03-07T12:15:28.383Z,2.27
2023-03-07T12:18:16.048Z,2.00
2023-03-07T12:20:53.324Z,2.10
2023-03-07T12:23:26.032Z,2.17
2023-03-07T12:25:56.083Z,1.70
2023-03-07T12:28:28.228Z,1.90
2023-03-07T12:31:09.966Z,1.90
2023-03-07T12:33:50.548Z,1.80
2023-03-07T12:36:25.213Z,2.17
2023-03-07T12:38:57.600Z,1.60
2023-03-07T12:41:38.287Z,1.93
2023-03-07T12:44:13.957Z,2.00
2023-03-07T12:46:46.870Z,2.43
2023-03-07T12:49:21.155Z,2.10
2023-03-07T12:51:53.498Z,2.20
2023-03-07T12:54:25.719Z,1.77
2023-03-07T12:56:56.176Z,1.87
2023-03-07T12:59:26.794Z,1.90
2023-03-07T13:02:01.011Z,2.10
2023-03-07T13:04:33.061Z,1.93
2023-03-07T13:07:07.857Z,1.80
2023-03-07T13:09:36.764Z,2.20
2023-03-07T13:12:33.572Z,2.10
2023-03-07T13:15:02.713Z,2.43
2023-03-07T13:17:54.900Z,2.13
2023-03-07T13:20:40.331Z,1.57
2023-03-07T13:23:23.629Z,1.90
2023-03-07T13:26:10.428Z,2.30
2023-03-07T13:28:44.330Z,1.90
2023-03-07T13:31:26.759Z,1.90
2023-03-07T13:33:54.100Z,1.90
2023-03-07T13:36:32.718Z,1.67
2023-03-07T13:39:00.790Z,1.53
2023-03-07T13:41:44.278Z,1.70
2023-03-07T13:44:28.482Z,2.03
2023-03-07T13:47:02.605Z,1.40
2023-03-07T13:49:41.362Z,1.33
2023-03-07T13:52:39.550Z,1.37
2023-03-07T13:55:28.944Z,1.40
2023-03-07T13:58:07.074Z,1.40
2023-03-07T14:00:38.491Z,1.67
2023-03-07T14:03:27.934Z,1.87
2023-03-07T14:05:57.383Z,1.20
2023-03-07T14:08:28.735Z,1.20
2023-03-07T14:10:56.549Z,1.57
2023-03-07T14:13:56.848Z,0.90
2023-03-07T14:16:41.649Z,1.50
2023-03-07T14:19:21.809Z,1.10
2023-03-07T14:21:55.207Z,1.20
2023-03-07T14:24:52.318Z,1.00
2023-03-07T14:27:19.132Z,1.30
2023-03-07T14:29:50.759Z,1.60
2023-03-07T14:32:23.486Z,1.60
2023-03-07T14:34:53.520Z,2.00
2023-03-07T14:37:24.303Z,1.70
2023-03-07T14:40:04.391Z,1.47
2023-03-07T14:42:38.547Z,1.37
2023-03-07T14:45:21.329Z,1.60
2023-03-07T14:48:06.116Z,1.87
2023-03-07T14:50:35.810Z,1.20
2023-03-07T14:53:05.687Z,1.50
2023-03-07T14:55:37.553Z,1.97
2023-03-07T14:58:05.267Z,1.77
2023-03-07T15:00:36.065Z,1.90
2023-03-07T15:03:04.748Z,2.13
2023-03-07T15:05:35.097Z,1.73
2023-03-07T15:08:02.005Z,2.07
2023-03-07T15:10:33.487Z,1.57
2023-03-07T15:13:01.024Z,1.70
2023-03-07T15:15:31.846Z,1.33
2023-03-07T15:18:04.249Z,2.13
2023-03-07T15:20:31.911Z,1.50
2023-03-07T15:23:07.434Z,2.00
2023-03-07T15:25:39.156Z,1.90
2023-03-07T15:28:15.464Z,2.10
2023-03-07T15:30:48.258Z,2.30
2023-03-07T15:33:22.234Z,2.10
2023-03-07T15:36:09.062Z,1.50
2023-03-07T15:38:38.575Z,1.60
2023-03-07T15:41:31.569Z,1.30
2023-03-07T15:44:17.802Z,1.60
2023-03-07T15:46:47.177Z,1.70
2023-03-07T15:49:23.870Z,1.10
2023-03-07T15:51:53.124Z,1.37
2023-03-07T15:54:30.456Z,1.80
2023-03-07T15:57:00.324Z,1.50
2023-03-07T15:59:30.700Z,1.60
2023-03-07T16:01:57.784Z,1.63
2023-03-07T16:04:35.931Z,1.77
2023-03-07T16:07:03.467Z,1.50
2023-03-07T16:09:32.044Z,1.57
2023-03-07T16:11:59.181Z,1.57
2023-03-07T16:14:29.290Z,1.60
2023-03-07T16:16:58.691Z,1.93
2023-03-07T16:19:26.300Z,1.60
2023-03-07T16:21:53.276Z,1.40
2023-03-07T16:24:20.453Z,2.00
2023-03-07T16:26:49.258Z,1.67
2023-03-07T16:29:18.358Z,1.93
2023-03-07T16:31:45.850Z,1.53
2023-03-07T16:34:16.139Z,2.10
2023-03-07T16:36:43.036Z,2.10
2023-03-07T16:39:10.329Z,1.60
2023-03-07T16:41:38.298Z,1.90
2023-03-07T16:44:06.668Z,2.10
2023-03-07T16:46:35.494Z,2.07
2023-03-07T16:49:02.641Z,2.00
2023-03-07T16:51:31.025Z,2.53
2023-03-07T16:53:59.737Z,2.10
2023-03-07T16:56:30.662Z,1.73
2023-03-07T16:58:58.507Z,2.03
2023-03-07T17:01:26.729Z,2.10
2023-03-07T17:03:56.717Z,2.03
2023-03-07T17:06:37.233Z,2.20
2023-03-07T17:09:06.062Z,1.90
2023-03-07T17:11:33.613Z,1.90
2023-03-07T17:14:03.834Z,2.10
2023-03-07T17:16:34.631Z,1.80
2023-03-07T17:19:02.167Z,2.00
2023-03-07T17:21:29.402Z,1.93
2023-03-07T17:23:56.649Z,2.47
2023-03-07T17:26:28.790Z,2.10
2023-03-07T17:28:59.089Z,1.90
2023-03-07T17:31:26.083Z,2.03
2023-03-07T17:33:54.876Z,2.40
2023-03-07T17:36:23.712Z,2.50
2023-03-07T17:38:50.911Z,2.33
2023-03-07T17:41:17.794Z,2.20
2023-03-07T17:43:44.931Z,2.50
2023-03-07T17:46:12.190Z,2.20
2023-03-07T17:48:39.454Z,2.50
2023-03-07T17:51:09.891Z,2.00
2023-03-07T17:53:37.752Z,2.50
2023-03-07T17:56:08.363Z,2.30
2023-03-07T17:58:36.006Z,2.43
2023-03-07T18:01:02.899Z,2.50
2023-03-07T18:03:30.116Z,2.80
2023-03-07T18:05:56.978Z,2.23
2023-03-07T18:08:25.758Z,2.30
2023-03-07T18:10:52.583Z,2.10
2023-03-07T18:13:21.747Z,2.83
2023-03-07T18:15:48.665Z,2.70
2023-03-07T18:18:16.577Z,2.50
2023-03-07T18:20:43.430Z,2.83
2023-03-07T18:23:10.273Z,2.97
2023-03-07T18:25:38.432Z,2.40
2023-03-07T18:28:05.323Z,3.03
2023-03-07T18:30:32.131Z,3.03
2023-03-07T18:32:59.399Z,2.83
2023-03-07T18:35:26.218Z,3.47
2023-03-07T18:37:53.130Z,4.20
2023-03-07T18:40:22.780Z,3.63
2023-03-07T18:42:51.410Z,3.43
2023-03-07T18:45:18.565Z,3.47
2023-03-07T18:47:45.369Z,3.67
2023-03-07T18:50:12.312Z,3.00
2023-03-07T18:52:39.151Z,3.60
2023-03-07T18:55:06.742Z,3.10
2023-03-07T18:57:33.796Z,3.30
2023-03-07T19:00:01.965Z,3.67
2023-03-07T19:02:28.890Z,3.60
2023-03-07T19:04:55.828Z,3.83
2023-03-07T19:07:23.746Z,3.80
2023-03-07T19:09:53.537Z,3.90
2023-03-07T19:12:21.111Z,3.50
2023-03-07T19:14:49.062Z,3.63
2023-03-07T19:17:17.559Z,3.67
2023-03-07T19:19:44.403Z,3.27
2023-03-07T19:22:11.645Z,3.20
2023-03-07T19:24:38.473Z,3.20
2023-03-07T19:27:05.573Z,3.20
2023-03-07T19:29:32.817Z,3.30
2023-03-07T19:31:59.705Z,4.17
2023-03-07T19:34:27.949Z,3.23
2023-03-07T19:36:55.015Z,3.97
2023-03-07T19:39:21.793Z,4.07
2023-03-07T19:41:49.298Z,4.37
2023-03-07T19:44:16.757Z,3.30
2023-03-07T19:46:46.366Z,3.67
2023-03-07T19:49:13.619Z,3.27
2023-03-07T19:51:41.817Z,3.30
2023-03-07T19:54:09.610Z,3.60
2023-03-07T19:56:38.683Z,3.00
2023-03-07T19:59:08.265Z,3.63
2023-03-07T20:01:35.185Z,3.47
2023-03-07T20:04:04.681Z,3.37
2023-03-07T20:06:32.161Z,3.77
2023-03-07T20:09:00.663Z,2.97
2023-03-07T20:11:29.060Z,3.70
2023-03-07T20:13:57.212Z,3.40
2023-03-07T20:16:29.362Z,3.50
2023-03-07T20:18:58.049Z,5.23
2023-03-07T20:21:28.399Z,3.87
2023-03-07T20:23:59.151Z,3.73
2023-03-07T20:26:30.114Z,3.53
2023-03-07T20:28:57.256Z,3.40
2023-03-07T20:31:25.344Z,3.00
2023-03-07T20:33:52.912Z,2.77
2023-03-07T20:36:23.020Z,2.60
2023-03-07T20:38:51.524Z,3.00
2023-03-07T20:41:21.443Z,2.67
2023-03-07T20:43:50.817Z,2.87
2023-03-07T20:46:19.747Z,2.20
2023-03-07T20:48:47.240Z,2.67
2023-03-07T20:51:19.022Z,2.37
2023-03-07T20:53:46.591Z,2.60
2023-03-07T20:56:14.234Z,2.70
2023-03-07T20:58:41.620Z,2.60
2023-03-07T21:01:10.507Z,2.63
2023-03-07T21:03:38.328Z,3.00
2023-03-07T21:06:06.195Z,2.03
2023-03-07T21:08:35.508Z,3.10
2023-03-07T21:11:04.365Z,3.30
2023-03-07T21:13:34.824Z,2.90
2023-03-07T21:16:04.031Z,3.50
2023-03-07T21:18:32.886Z,3.87
2023-03-07T21:21:00.216Z,3.30
2023-03-07T21:23:27.524Z,3.47
2023-03-07T21:26:00.112Z,4.17
2023-03-07T21:28:27.328Z,3.40
2023-03-07T21:30:59.499Z,3.23
2023-03-07T21:33:26.561Z,3.57
2023-03-07T21:35:54.992Z,3.60
2023-03-07T21:38:22.225Z,3.63
2023-03-07T21:40:49.215Z,3.73
2023-03-07T21:43:16.113Z,2.73
2023-03-07T21:45:43.001Z,2.57
2023-03-07T21:48:10.567Z,2.83
2023-03-07T21:50:40.034Z,3.13
2023-03-07T21:53:08.357Z,2.60
2023-03-07T21:55:35.535Z,2.57
2023-03-07T21:58:02.402Z,2.30
2023-03-07T22:00:30.168Z,2.83
2023-03-07T22:02:57.141Z,2.80
2023-03-07T22:05:24.374Z,2.57
2023-03-07T22:07:52.542Z,3.33
2023-03-07T22:10:21.105Z,2.37
2023-03-07T22:12:48.312Z,2.33
2023-03-07T22:15:15.234Z,2.77
2023-03-07T22:17:42.360Z,2.27
2023-03-07T22:20:11.247Z,2.30
2023-03-07T22:22:39.630Z,2.53
2023-03-07T22:25:07.399Z,2.40
2023-03-07T22:27:37.802Z,1.90
2023-03-07T22:30:05.558Z,2.20
2023-03-07T22:32:33.357Z,2.40
2023-03-07T22:35:01.164Z,2.70
2023-03-07T22:37:28.426Z,2.20
2023-03-07T22:39:55.301Z,2.40
2023-03-07T22:42:22.160Z,2.00
2023-03-07T22:44:50.258Z,2.30
2023-03-07T22:47:17.546Z,2.10
2023-03-07T22:49:44.366Z,2.23
2023-03-07T22:52:11.558Z,2.30
2023-03-07T22:54:40.926Z,2.87
2023-03-07T22:57:08.041Z,2.60
2023-03-07T22:59:34.882Z,2.97
2023-03-07T23:02:03.364Z,3.27
2023-03-07T23:04:30.507Z,3.30
2023-03-07T23:06:57.391Z,3.40
2023-03-07T23:09:24.177Z,2.90
2023-03-07T23:11:51.311Z,3.67
2023-03-07T23:14:18.194Z,2.60
2023-03-07T23:16:45.347Z,3.27
2023-03-07T23:19:13.582Z,4.17
2023-03-07T23:21:40.803Z,3.80
2023-03-07T23:24:08.255Z,4.23
2023-03-07T23:26:37.819Z,4.77
2023-03-07T23:29:05.728Z,4.33
2023-03-07T23:31:35.619Z,4.87
2023-03-07T23:34:04.292Z,4.47
2023-03-07T23:36:33.340Z,4.87
2023-03-07T23:39:01.025Z,5.00
2023-03-07T23:41:28.526Z,5.30
2023-03-07T23:43:56.761Z,5.47
2023-03-07T23:46:24.908Z,5.63
2023-03-07T23:48:52.855Z,5.73
2023-03-07T23:51:21.239Z,5.70
2023-03-07T23:53:49.503Z,5.60
2023-03-07T23:56:16.722Z,5.80
2023-03-07T23:58:43.967Z,5.57
